sensor_id;sensor_type;location;lat;lon;timestamp;temperature;humidity
26035;DHT22;13809;48.632;11.576;2023-06-14T00:02:19;19.40;17.10
26035;DHT22;13809;48.632;11.576;2023-06-14T00:07:34;19.40;17.40
26035;DHT22;13809;48.632;11.576;2023-06-14T00:12:38;19.20;18.00
26035;DHT22;13809;48.632;11.576;2023-06-14T00:17:41;19.00;17.80
26035;DHT22;13809;48.632;11.576;2023-06-14T00:22:51;18.80;17.90
26035;DHT22;13809;48.632;11.576;2023-06-14T00:27:56;18.50;18.40
26035;DHT22;13809;48.632;11.576;2023-06-14T00:33:00;18.40;18.20
26035;DHT22;13809;48.632;11.576;2023-06-14T00:38:05;18.30;18.30
26035;DHT22;13809;48.632;11.576;2023-06-14T00:43:08;18.20;18.70
26035;DHT22;13809;48.632;11.576;2023-06-14T00:48:12;18.20;18.60
26035;DHT22;13809;48.632;11.576;2023-06-14T00:53:18;18.10;18.70
26035;DHT22;13809;48.632;11.576;2023-06-14T00:58:22;18.10;18.80
26035;DHT22;13809;48.632;11.576;2023-06-14T01:03:26;18.10;18.80
26035;DHT22;13809;48.632;11.576;2023-06-14T01:08:41;18.10;18.60
26035;DHT22;13809;48.632;11.576;2023-06-14T01:13:47;18.10;19.60
26035;DHT22;13809;48.632;11.576;2023-06-14T01:18:52;18.00;18.70
26035;DHT22;13809;48.632;11.576;2023-06-14T01:23:59;18.00;19.20
26035;DHT22;13809;48.632;11.576;2023-06-14T01:29:05;17.90;19.20
26035;DHT22;13809;48.632;11.576;2023-06-14T01:34:10;17.90;19.10
26035;DHT22;13809;48.632;11.576;2023-06-14T01:39:15;17.90;19.30
26035;DHT22;13809;48.632;11.576;2023-06-14T01:44:19;17.80;19.60
26035;DHT22;13809;48.632;11.576;2023-06-14T01:49:22;17.80;19.20
26035;DHT22;13809;48.632;11.576;2023-06-14T01:54:27;17.70;19.20
26035;DHT22;13809;48.632;11.576;2023-06-14T01:59:31;17.60;19.60
26035;DHT22;13809;48.632;11.576;2023-06-14T02:04:36;17.60;19.50
26035;DHT22;13809;48.632;11.576;2023-06-14T02:09:41;17.50;19.40
26035;DHT22;13809;48.632;11.576;2023-06-14T02:14:44;17.40;19.80
26035;DHT22;13809;48.632;11.576;2023-06-14T02:19:48;17.20;19.50
26035;DHT22;13809;48.632;11.576;2023-06-14T02:24:54;17.10;19.60
26035;DHT22;13809;48.632;11.576;2023-06-14T02:30:04;17.00;20.00
26035;DHT22;13809;48.632;11.576;2023-06-14T02:35:08;17.00;20.00
26035;DHT22;13809;48.632;11.576;2023-06-14T02:40:13;16.90;20.10
26035;DHT22;13809;48.632;11.576;2023-06-14T02:45:17;16.80;20.30
26035;DHT22;13809;48.632;11.576;2023-06-14T02:50:20;16.80;20.10
26035;DHT22;13809;48.632;11.576;2023-06-14T02:55:27;16.80;20.30
26035;DHT22;13809;48.632;11.576;2023-06-14T03:00:30;16.70;20.50
26035;DHT22;13809;48.632;11.576;2023-06-14T03:05:33;16.70;20.30
26035;DHT22;13809;48.632;11.576;2023-06-14T03:10:38;16.60;20.40
26035;DHT22;13809;48.632;11.576;2023-06-14T03:15:41;16.50;20.80
26035;DHT22;13809;48.632;11.576;2023-06-14T03:20:45;16.50;20.70
26035;DHT22;13809;48.632;11.576;2023-06-14T03:25:49;16.40;20.80
26035;DHT22;13809;48.632;11.576;2023-06-14T03:30:53;16.40;21.10
26035;DHT22;13809;48.632;11.576;2023-06-14T03:35:56;16.40;20.90
26035;DHT22;13809;48.632;11.576;2023-06-14T03:41:01;16.30;20.90
26035;DHT22;13809;48.632;11.576;2023-06-14T03:46:04;16.30;21.30
26035;DHT22;13809;48.632;11.576;2023-06-14T03:51:07;16.20;20.90
26035;DHT22;13809;48.632;11.576;2023-06-14T03:56:12;16.10;21.20
26035;DHT22;13809;48.632;11.576;2023-06-14T04:01:15;16.10;21.70
26035;DHT22;13809;48.632;11.576;2023-06-14T04:06:18;16.00;21.40
26035;DHT22;13809;48.632;11.576;2023-06-14T04:11:23;15.90;21.70
26035;DHT22;13809;48.632;11.576;2023-06-14T04:16:28;15.80;22.10
26035;DHT22;13809;48.632;11.576;2023-06-14T04:21:31;15.80;21.70
26035;DHT22;13809;48.632;11.576;2023-06-14T04:26:38;15.70;22.10
26035;DHT22;13809;48.632;11.576;2023-06-14T04:31:41;15.70;22.40
26035;DHT22;13809;48.632;11.576;2023-06-14T04:36:46;15.70;22.40
26035;DHT22;13809;48.632;11.576;2023-06-14T04:41:52;15.70;22.40
26035;DHT22;13809;48.632;11.576;2023-06-14T04:46:58;15.70;22.40
26035;DHT22;13809;48.632;11.576;2023-06-14T04:52:02;15.90;22.50
26035;DHT22;13809;48.632;11.576;2023-06-14T04:57:07;15.90;22.50
26035;DHT22;13809;48.632;11.576;2023-06-14T05:02:11;16.00;22.60
26035;DHT22;13809;48.632;11.576;2023-06-14T05:07:14;16.00;22.60
26035;DHT22;13809;48.632;11.576;2023-06-14T05:12:19;16.10;22.70
26035;DHT22;13809;48.632;11.576;2023-06-14T05:17:22;16.20;23.10
26035;DHT22;13809;48.632;11.576;2023-06-14T05:22:25;16.40;22.90
26035;DHT22;13809;48.632;11.576;2023-06-14T05:27:30;16.50;23.40
26035;DHT22;13809;48.632;11.576;2023-06-14T05:32:33;16.60;24.00
26035;DHT22;13809;48.632;11.576;2023-06-14T05:37:37;16.80;23.60
26035;DHT22;13809;48.632;11.576;2023-06-14T05:42:41;16.90;23.60
26035;DHT22;13809;48.632;11.576;2023-06-14T05:47:44;17.00;24.20
26035;DHT22;13809;48.632;11.576;2023-06-14T05:52:48;17.20;23.80
26035;DHT22;13809;48.632;11.576;2023-06-14T05:57:52;17.40;23.90
26035;DHT22;13809;48.632;11.576;2023-06-14T06:02:56;17.50;24.30
26035;DHT22;13809;48.632;11.576;2023-06-14T06:08:00;17.70;24.00
26035;DHT22;13809;48.632;11.576;2023-06-14T06:13:04;17.90;24.10
26035;DHT22;13809;48.632;11.576;2023-06-14T06:18:10;18.10;24.60
26035;DHT22;13809;48.632;11.576;2023-06-14T06:23:13;18.30;24.20
26035;DHT22;13809;48.632;11.576;2023-06-14T06:28:18;18.40;24.20
26035;DHT22;13809;48.632;11.576;2023-06-14T06:33:21;18.70;24.40
26035;DHT22;13809;48.632;11.576;2023-06-14T06:38:25;18.90;24.60
26035;DHT22;13809;48.632;11.576;2023-06-14T06:43:30;19.10;24.10
26035;DHT22;13809;48.632;11.576;2023-06-14T06:48:33;19.30;24.20
26035;DHT22;13809;48.632;11.576;2023-06-14T06:53:36;19.60;23.80
26035;DHT22;13809;48.632;11.576;2023-06-14T06:58:47;19.80;23.70
26035;DHT22;13809;48.632;11.576;2023-06-14T07:57:32;18.30;25.40
26035;DHT22;13809;48.632;11.576;2023-06-14T08:02:35;18.60;25.90
26035;DHT22;13809;48.632;11.576;2023-06-14T08:07:39;19.50;25.00
26035;DHT22;13809;48.632;11.576;2023-06-14T08:12:43;20.20;25.10
26035;DHT22;13809;48.632;11.576;2023-06-14T08:17:47;20.90;24.40
26035;DHT22;13809;48.632;11.576;2023-06-14T08:22:51;21.50;24.30
26035;DHT22;13809;48.632;11.576;2023-06-14T08:27:58;22.00;23.60
26035;DHT22;13809;48.632;11.576;2023-06-14T08:33:01;22.40;23.40
26035;DHT22;13809;48.632;11.576;2023-06-14T08:38:17;22.80;23.00
26035;DHT22;13809;48.632;11.576;2023-06-14T08:49:16;23.20;22.30
26035;DHT22;13809;48.632;11.576;2023-06-14T08:54:20;23.00;22.60
26035;DHT22;13809;48.632;11.576;2023-06-14T08:59:24;23.50;22.60
26035;DHT22;13809;48.632;11.576;2023-06-14T09:04:29;23.90;21.90
26035;DHT22;13809;48.632;11.576;2023-06-14T09:09:38;24.20;21.20
26035;DHT22;13809;48.632;11.576;2023-06-14T09:14:48;24.40;21.00
26035;DHT22;13809;48.632;11.576;2023-06-14T09:19:55;24.60;21.30
26035;DHT22;13809;48.632;11.576;2023-06-14T09:24:59;24.90;21.00
26035;DHT22;13809;48.632;11.576;2023-06-14T09:30:03;25.20;20.60
26035;DHT22;13809;48.632;11.576;2023-06-14T09:35:09;25.40;20.50
26035;DHT22;13809;48.632;11.576;2023-06-14T09:40:12;25.60;19.50
26035;DHT22;13809;48.632;11.576;2023-06-14T09:45:15;25.80;19.90
26035;DHT22;13809;48.632;11.576;2023-06-14T09:50:24;26.00;19.10
26035;DHT22;13809;48.632;11.576;2023-06-14T09:55:30;26.20;19.10
26035;DHT22;13809;48.632;11.576;2023-06-14T10:00:34;26.40;18.50
26035;DHT22;13809;48.632;11.576;2023-06-14T10:05:43;26.50;18.80
26035;DHT22;13809;48.632;11.576;2023-06-14T10:10:46;26.70;18.00
26035;DHT22;13809;48.632;11.576;2023-06-14T10:15:58;26.80;18.30
26035;DHT22;13809;48.632;11.576;2023-06-14T10:21:09;27.00;17.30
26035;DHT22;13809;48.632;11.576;2023-06-14T10:26:19;27.10;16.50
26035;DHT22;13809;48.632;11.576;2023-06-14T10:31:40;27.20;16.50
26035;DHT22;13809;48.632;11.576;2023-06-14T10:36:44;27.20;16.80
26035;DHT22;13809;48.632;11.576;2023-06-14T10:41:52;27.10;16.90
26035;DHT22;13809;48.632;11.576;2023-06-14T10:46:58;27.00;16.60
26035;DHT22;13809;48.632;11.576;2023-06-14T10:52:03;27.00;17.10
26035;DHT22;13809;48.632;11.576;2023-06-14T10:57:08;26.90;16.80
26035;DHT22;13809;48.632;11.576;2023-06-14T11:02:37;26.90;16.90
26035;DHT22;13809;48.632;11.576;2023-06-14T11:07:58;26.80;16.60
26035;DHT22;13809;48.632;11.576;2023-06-14T11:13:07;26.80;16.20
26035;DHT22;13809;48.632;11.576;2023-06-14T11:18:12;26.80;16.90
26035;DHT22;13809;48.632;11.576;2023-06-14T11:23:17;26.90;16.80
26035;DHT22;13809;48.632;11.576;2023-06-14T11:28:20;27.00;16.50
26035;DHT22;13809;48.632;11.576;2023-06-14T11:33:25;27.20;16.50
26035;DHT22;13809;48.632;11.576;2023-06-14T11:38:30;27.30;15.90
26035;DHT22;13809;48.632;11.576;2023-06-14T11:43:33;27.30;15.10
26035;DHT22;13809;48.632;11.576;2023-06-14T11:48:37;27.40;15.50
26035;DHT22;13809;48.632;11.576;2023-06-14T11:53:44;27.50;15.20
26035;DHT22;13809;48.632;11.576;2023-06-14T11:58:47;27.50;15.10
26035;DHT22;13809;48.632;11.576;2023-06-14T12:03:51;27.40;15.20
26035;DHT22;13809;48.632;11.576;2023-06-14T12:08:57;27.40;15.30
26035;DHT22;13809;48.632;11.576;2023-06-14T12:14:00;27.30;15.10
26035;DHT22;13809;48.632;11.576;2023-06-14T12:19:12;27.20;15.40
26035;DHT22;13809;48.632;11.576;2023-06-14T12:24:17;27.10;15.20
26035;DHT22;13809;48.632;11.576;2023-06-14T12:29:21;27.10;15.60
26035;DHT22;13809;48.632;11.576;2023-06-14T12:34:26;27.00;15.50
26035;DHT22;13809;48.632;11.576;2023-06-14T12:39:31;27.00;15.50
26035;DHT22;13809;48.632;11.576;2023-06-14T12:44:34;26.90;15.10
26035;DHT22;13809;48.632;11.576;2023-06-14T12:49:42;26.90;15.20
26035;DHT22;13809;48.632;11.576;2023-06-14T12:54:46;26.80;15.20
26035;DHT22;13809;48.632;11.576;2023-06-14T12:59:50;26.70;15.20
26035;DHT22;13809;48.632;11.576;2023-06-14T13:04:53;26.70;15.00
26035;DHT22;13809;48.632;11.576;2023-06-14T13:09:58;26.70;15.40
26035;DHT22;13809;48.632;11.576;2023-06-14T13:15:01;26.80;15.10
26035;DHT22;13809;48.632;11.576;2023-06-14T13:20:05;26.90;15.20
26035;DHT22;13809;48.632;11.576;2023-06-14T13:25:11;27.00;15.00
26035;DHT22;13809;48.632;11.576;2023-06-14T13:30:14;27.10;15.00
26035;DHT22;13809;48.632;11.576;2023-06-14T13:35:19;27.20;15.00
26035;DHT22;13809;48.632;11.576;2023-06-14T13:40:24;27.30;14.80
26035;DHT22;13809;48.632;11.576;2023-06-14T13:45:27;27.40;14.50
26035;DHT22;13809;48.632;11.576;2023-06-14T13:50:31;27.60;14.50
26035;DHT22;13809;48.632;11.576;2023-06-14T13:55:38;27.70;14.50
26035;DHT22;13809;48.632;11.576;2023-06-14T14:00:41;27.70;13.70
26035;DHT22;13809;48.632;11.576;2023-06-14T14:05:44;27.80;14.00
26035;DHT22;13809;48.632;11.576;2023-06-14T14:10:49;27.80;13.70
26035;DHT22;13809;48.632;11.576;2023-06-14T14:15:52;27.90;13.60
26035;DHT22;13809;48.632;11.576;2023-06-14T14:20:56;27.90;13.90
26035;DHT22;13809;48.632;11.576;2023-06-14T14:26:00;27.90;13.80
26035;DHT22;13809;48.632;11.576;2023-06-14T14:31:05;27.90;13.70
26035;DHT22;13809;48.632;11.576;2023-06-14T14:36:09;28.00;13.90
26035;DHT22;13809;48.632;11.576;2023-06-14T14:41:14;28.00;13.80
26035;DHT22;13809;48.632;11.576;2023-06-14T14:46:17;28.10;13.60
26035;DHT22;13809;48.632;11.576;2023-06-14T14:51:20;28.00;13.70
26035;DHT22;13809;48.632;11.576;2023-06-14T14:56:25;28.00;13.60
26035;DHT22;13809;48.632;11.576;2023-06-14T15:01:29;28.00;13.90
26035;DHT22;13809;48.632;11.576;2023-06-14T15:06:32;28.00;13.60
26035;DHT22;13809;48.632;11.576;2023-06-14T15:11:42;28.00;13.70
26035;DHT22;13809;48.632;11.576;2023-06-14T15:16:46;28.00;13.60
26035;DHT22;13809;48.632;11.576;2023-06-14T15:21:49;28.00;13.60
26035;DHT22;13809;48.632;11.576;2023-06-14T15:26:54;28.10;13.90
26035;DHT22;13809;48.632;11.576;2023-06-14T15:31:57;28.10;13.70
26035;DHT22;13809;48.632;11.576;2023-06-14T15:37:00;28.10;13.90
26035;DHT22;13809;48.632;11.576;2023-06-14T15:42:06;28.20;14.00
26035;DHT22;13809;48.632;11.576;2023-06-14T15:47:09;28.20;13.60
26035;DHT22;13809;48.632;11.576;2023-06-14T15:52:13;28.20;13.70
26035;DHT22;13809;48.632;11.576;2023-06-14T15:57:17;28.10;13.60
26035;DHT22;13809;48.632;11.576;2023-06-14T16:02:20;28.00;13.50
26035;DHT22;13809;48.632;11.576;2023-06-14T16:07:24;28.00;13.60
26035;DHT22;13809;48.632;11.576;2023-06-14T16:12:28;28.00;13.60
26035;DHT22;13809;48.632;11.576;2023-06-14T16:17:31;27.90;13.70
26035;DHT22;13809;48.632;11.576;2023-06-14T16:22:36;27.90;13.70
26035;DHT22;13809;48.632;11.576;2023-06-14T16:27:41;28.00;13.70
26035;DHT22;13809;48.632;11.576;2023-06-14T16:32:44;28.00;13.50
26035;DHT22;13809;48.632;11.576;2023-06-14T16:37:47;28.10;13.50
26035;DHT22;13809;48.632;11.576;2023-06-14T16:42:52;28.10;13.70
26035;DHT22;13809;48.632;11.576;2023-06-14T16:47:55;28.20;13.50
26035;DHT22;13809;48.632;11.576;2023-06-14T16:52:58;28.10;13.50
26035;DHT22;13809;48.632;11.576;2023-06-14T16:58:03;28.10;13.60
26035;DHT22;13809;48.632;11.576;2023-06-14T17:03:06;28.10;13.30
26035;DHT22;13809;48.632;11.576;2023-06-14T17:08:10;28.10;13.50
26035;DHT22;13809;48.632;11.576;2023-06-14T17:13:14;28.00;13.40
26035;DHT22;13809;48.632;11.576;2023-06-14T17:18:18;27.90;13.20
26035;DHT22;13809;48.632;11.576;2023-06-14T17:23:21;27.90;13.50
26035;DHT22;13809;48.632;11.576;2023-06-14T17:28:26;27.90;13.60
26035;DHT22;13809;48.632;11.576;2023-06-14T17:33:29;27.90;13.60
26035;DHT22;13809;48.632;11.576;2023-06-14T17:38:33;27.90;13.70
26035;DHT22;13809;48.632;11.576;2023-06-14T17:43:38;28.00;13.70
26035;DHT22;13809;48.632;11.576;2023-06-14T17:48:41;28.00;13.60
26035;DHT22;13809;48.632;11.576;2023-06-14T17:53:44;28.00;13.70
26035;DHT22;13809;48.632;11.576;2023-06-14T17:58:51;28.00;13.70
26035;DHT22;13809;48.632;11.576;2023-06-14T18:03:57;27.90;13.50
26035;DHT22;13809;48.632;11.576;2023-06-14T18:09:00;27.90;13.70
26035;DHT22;13809;48.632;11.576;2023-06-14T18:14:05;27.80;14.40
26035;DHT22;13809;48.632;11.576;2023-06-14T18:19:08;27.80;13.80
26035;DHT22;13809;48.632;11.576;2023-06-14T18:24:11;27.70;13.80
26035;DHT22;13809;48.632;11.576;2023-06-14T18:29:16;27.70;13.90
26035;DHT22;13809;48.632;11.576;2023-06-14T18:34:20;27.70;14.00
26035;DHT22;13809;48.632;11.576;2023-06-14T18:39:24;27.70;14.20
26035;DHT22;13809;48.632;11.576;2023-06-14T18:44:29;27.70;14.40
26035;DHT22;13809;48.632;11.576;2023-06-14T18:49:32;27.60;14.50
26035;DHT22;13809;48.632;11.576;2023-06-14T18:54:36;27.60;14.50
26035;DHT22;13809;48.632;11.576;2023-06-14T18:59:40;27.50;14.50
26035;DHT22;13809;48.632;11.576;2023-06-14T19:04:44;27.40;14.60
26035;DHT22;13809;48.632;11.576;2023-06-14T19:09:47;27.40;14.60
26035;DHT22;13809;48.632;11.576;2023-06-14T19:14:51;27.30;15.10
26035;DHT22;13809;48.632;11.576;2023-06-14T19:19:55;27.30;14.60
26035;DHT22;13809;48.632;11.576;2023-06-14T19:24:58;27.20;14.70
26035;DHT22;13809;48.632;11.576;2023-06-14T19:30:03;27.10;14.80
26035;DHT22;13809;48.632;11.576;2023-06-14T19:35:08;27.10;15.00
26035;DHT22;13809;48.632;11.576;2023-06-14T19:40:13;27.00;15.10
26035;DHT22;13809;48.632;11.576;2023-06-14T19:45:19;26.90;15.30
26035;DHT22;13809;48.632;11.576;2023-06-14T19:50:22;26.90;15.30
26035;DHT22;13809;48.632;11.576;2023-06-14T19:55:25;26.80;15.30
26035;DHT22;13809;48.632;11.576;2023-06-14T20:00:31;26.70;15.30
26035;DHT22;13809;48.632;11.576;2023-06-14T20:05:34;26.60;15.40
26035;DHT22;13809;48.632;11.576;2023-06-14T20:10:38;26.50;15.40
26035;DHT22;13809;48.632;11.576;2023-06-14T20:15:42;26.50;15.70
26035;DHT22;13809;48.632;11.576;2023-06-14T20:20:49;26.40;15.70
26035;DHT22;13809;48.632;11.576;2023-06-14T20:25:52;26.30;16.10
26035;DHT22;13809;48.632;11.576;2023-06-14T20:30:57;26.20;16.10
26035;DHT22;13809;48.632;11.576;2023-06-14T20:36:00;26.20;16.40
26035;DHT22;13809;48.632;11.576;2023-06-14T20:41:03;26.10;16.40
26035;DHT22;13809;48.632;11.576;2023-06-14T20:46:08;26.00;16.50
26035;DHT22;13809;48.632;11.576;2023-06-14T20:51:11;25.90;16.80
26035;DHT22;13809;48.632;11.576;2023-06-14T20:56:15;25.80;16.80
26035;DHT22;13809;48.632;11.576;2023-06-14T21:01:20;25.70;16.80
26035;DHT22;13809;48.632;11.576;2023-06-14T21:06:23;25.70;17.10
26035;DHT22;13809;48.632;11.576;2023-06-14T21:11:26;25.60;16.90
26035;DHT22;13809;48.632;11.576;2023-06-14T21:16:31;25.50;17.00
26035;DHT22;13809;48.632;11.576;2023-06-14T21:21:34;25.40;17.30
26035;DHT22;13809;48.632;11.576;2023-06-14T21:26:38;25.30;17.20
26035;DHT22;13809;48.632;11.576;2023-06-14T21:31:42;25.20;17.30
26035;DHT22;13809;48.632;11.576;2023-06-14T21:36:46;25.00;17.70
26035;DHT22;13809;48.632;11.576;2023-06-14T21:41:50;24.80;17.50
26035;DHT22;13809;48.632;11.576;2023-06-14T21:46:55;24.70;17.80
26035;DHT22;13809;48.632;11.576;2023-06-14T21:51:59;24.60;18.30
26035;DHT22;13809;48.632;11.576;2023-06-14T21:57:02;24.50;18.10
26035;DHT22;13809;48.632;11.576;2023-06-14T22:02:07;24.40;18.10
26035;DHT22;13809;48.632;11.576;2023-06-14T22:07:10;24.40;18.10
26035;DHT22;13809;48.632;11.576;2023-06-14T22:12:16;24.30;18.10
26035;DHT22;13809;48.632;11.576;2023-06-14T22:17:22;24.20;18.00
26035;DHT22;13809;48.632;11.576;2023-06-14T22:22:25;24.10;18.20
26035;DHT22;13809;48.632;11.576;2023-06-14T22:27:28;24.10;18.10
26035;DHT22;13809;48.632;11.576;2023-06-14T22:32:33;24.00;18.30
26035;DHT22;13809;48.632;11.576;2023-06-14T22:37:36;23.90;18.60
26035;DHT22;13809;48.632;11.576;2023-06-14T22:42:41;23.80;18.50
26035;DHT22;13809;48.632;11.576;2023-06-14T22:47:49;23.80;18.80
26035;DHT22;13809;48.632;11.576;2023-06-14T22:52:53;23.70;19.00
26035;DHT22;13809;48.632;11.576;2023-06-14T22:57:56;23.60;18.80
26035;DHT22;13809;48.632;11.576;2023-06-14T23:03:03;23.60;19.00
26035;DHT22;13809;48.632;11.576;2023-06-14T23:08:06;23.50;19.20
26035;DHT22;13809;48.632;11.576;2023-06-14T23:13:10;23.50;19.20
26035;DHT22;13809;48.632;11.576;2023-06-14T23:18:14;23.30;19.20
26035;DHT22;13809;48.632;11.576;2023-06-14T23:23:18;23.30;19.60
26035;DHT22;13809;48.632;11.576;2023-06-14T23:28:22;23.30;19.50
26035;DHT22;13809;48.632;11.576;2023-06-14T23:33:26;23.20;19.60
26035;DHT22;13809;48.632;11.576;2023-06-14T23:38:30;23.20;20.10
26035;DHT22;13809;48.632;11.576;2023-06-14T23:43:33;23.10;19.80
26035;DHT22;13809;48.632;11.576;2023-06-14T23:48:40;23.10;19.90
26035;DHT22;13809;48.632;11.576;2023-06-14T23:53:43;23.00;20.30
26035;DHT22;13809;48.632;11.576;2023-06-14T23:58:47;22.90;20.00
